sensor_id;sensor_type;location;lat;lon;timestamp;temperature;humidity
9293;DHT22;69930;48.232;12.384;2024-02-26T00:00:53;4.40;99.90
9293;DHT22;69930;48.232;12.384;2024-02-26T00:03:20;4.50;99.90
9293;DHT22;69930;48.232;12.384;2024-02-26T00:05:49;4.50;99.90
9293;DHT22;69930;48.232;12.384;2024-02-26T00:08:16;4.50;99.90
9293;DHT22;69930;48.232;12.384;2024-02-26T00:10:43;4.40;99.90
9293;DHT22;69930;48.232;12.384;2024-02-26T00:13:10;4.40;99.90
9293;DHT22;69930;48.232;12.384;2024-02-26T00:15:38;4.30;99.90
9293;DHT22;69930;48.232;12.384;2024-02-26T00:18:05;4.30;99.90
9293;DHT22;69930;48.232;12.384;2024-02-26T00:20:32;4.20;99.90
9293;DHT22;69930;48.232;12.384;2024-02-26T00:23:00;4.20;99.90
9293;DHT22;69930;48.232;12.384;2024-02-26T00:25:27;4.20;99.90
9293;DHT22;69930;48.232;12.384;2024-02-26T00:27:54;4.20;99.90
9293;DHT22;69930;48.232;12.384;2024-02-26T00:30:21;4.20;99.90
9293;DHT22;69930;48.232;12.384;2024-02-26T00:32:51;4.20;99.90
9293;DHT22;69930;48.232;12.384;2024-02-26T00:35:18;4.20;99.90
9293;DHT22;69930;48.232;12.384;2024-02-26T00:37:46;4.20;99.90
9293;DHT22;69930;48.232;12.384;2024-02-26T01:54:51;3.40;99.90
9293;DHT22;69930;48.232;12.384;2024-02-26T01:57:18;3.40;99.90
9293;DHT22;69930;48.232;12.384;2024-02-26T01:59:46;3.30;99.90
9293;DHT22;69930;48.232;12.384;2024-02-26T02:02:15;3.30;99.90
9293;DHT22;69930;48.232;12.384;2024-02-26T02:04:42;3.20;99.90
9293;DHT22;69930;48.232;12.384;2024-02-26T02:07:10;3.10;99.90
9293;DHT22;69930;48.232;12.384;2024-02-26T02:09:38;3.20;99.90
9293;DHT22;69930;48.232;12.384;2024-02-26T02:12:06;3.10;99.90
9293;DHT22;69930;48.232;12.384;2024-02-26T02:14:34;3.10;99.90
9293;DHT22;69930;48.232;12.384;2024-02-26T02:17:01;3.00;99.90
9293;DHT22;69930;48.232;12.384;2024-02-26T02:19:28;3.00;99.90
9293;DHT22;69930;48.232;12.384;2024-02-26T02:21:56;3.00;99.90
9293;DHT22;69930;48.232;12.384;2024-02-26T02:24:23;3.00;99.90
9293;DHT22;69930;48.232;12.384;2024-02-26T02:26:50;3.00;99.90
9293;DHT22;69930;48.232;12.384;2024-02-26T02:29:17;3.00;99.90
9293;DHT22;69930;48.232;12.384;2024-02-26T02:31:45;3.10;99.90
9293;DHT22;69930;48.232;12.384;2024-02-26T02:34:12;3.10;99.90
9293;DHT22;69930;48.232;12.384;2024-02-26T02:36:49;3.20;99.90
9293;DHT22;69930;48.232;12.384;2024-02-26T02:39:17;3.30;99.90
9293;DHT22;69930;48.232;12.384;2024-02-26T02:41:44;3.30;99.90
9293;DHT22;69930;48.232;12.384;2024-02-26T02:44:12;3.40;99.90
9293;DHT22;69930;48.232;12.384;2024-02-26T02:46:39;3.50;99.90
9293;DHT22;69930;48.232;12.384;2024-02-26T02:49:08;3.50;99.90
9293;DHT22;69930;48.232;12.384;2024-02-26T02:51:36;3.50;99.90
9293;DHT22;69930;48.232;12.384;2024-02-26T02:54:03;3.60;99.90
9293;DHT22;69930;48.232;12.384;2024-02-26T02:56:32;3.60;99.90
9293;DHT22;69930;48.232;12.384;2024-02-26T03:01:48;3.70;99.90
9293;DHT22;69930;48.232;12.384;2024-02-26T03:04:15;3.70;99.90
9293;DHT22;69930;48.232;12.384;2024-02-26T03:06:42;3.70;99.90
9293;DHT22;69930;48.232;12.384;2024-02-26T03:09:09;3.70;99.90
9293;DHT22;69930;48.232;12.384;2024-02-26T03:11:40;3.70;99.90
9293;DHT22;69930;48.232;12.384;2024-02-26T03:14:07;3.80;99.90
9293;DHT22;69930;48.232;12.384;2024-02-26T03:16:35;3.80;99.90
9293;DHT22;69930;48.232;12.384;2024-02-26T03:19:02;3.80;99.90
9293;DHT22;69930;48.232;12.384;2024-02-26T03:21:29;3.80;99.90
9293;DHT22;69930;48.232;12.384;2024-02-26T03:23:56;3.80;99.90
9293;DHT22;69930;48.232;12.384;2024-02-26T03:26:24;3.80;99.90
9293;DHT22;69930;48.232;12.384;2024-02-26T03:28:52;3.80;99.90
9293;DHT22;69930;48.232;12.384;2024-02-26T03:31:19;3.70;99.90
9293;DHT22;69930;48.232;12.384;2024-02-26T03:33:47;3.70;99.90
9293;DHT22;69930;48.232;12.384;2024-02-26T03:36:14;3.60;99.90
9293;DHT22;69930;48.232;12.384;2024-02-26T03:38:42;3.50;99.90
9293;DHT22;69930;48.232;12.384;2024-02-26T03:41:09;3.60;99.90
9293;DHT22;69930;48.232;12.384;2024-02-26T03:43:36;3.60;99.90
9293;DHT22;69930;48.232;12.384;2024-02-26T07:20:08;3.60;99.90
9293;DHT22;69930;48.232;12.384;2024-02-26T07:22:36;3.70;99.90
9293;DHT22;69930;48.232;12.384;2024-02-26T07:25:04;3.80;99.90
9293;DHT22;69930;48.232;12.384;2024-02-26T07:27:45;3.90;99.90
9293;DHT22;69930;48.232;12.384;2024-02-26T07:30:15;3.90;99.90
9293;DHT22;69930;48.232;12.384;2024-02-26T07:32:59;3.90;99.90
9293;DHT22;69930;48.232;12.384;2024-02-26T09:42:04;8.20;99.90
9293;DHT22;69930;48.232;12.384;2024-02-26T09:44:36;8.10;99.90
9293;DHT22;69930;48.232;12.384;2024-02-26T09:47:10;8.10;99.90
9293;DHT22;69930;48.232;12.384;2024-02-26T09:49:39;8.20;99.90
9293;DHT22;69930;48.232;12.384;2024-02-26T09:52:08;8.20;99.90
9293;DHT22;69930;48.232;12.384;2024-02-26T09:54:38;8.30;99.90
9293;DHT22;69930;48.232;12.384;2024-02-26T09:57:10;8.30;99.90
9293;DHT22;69930;48.232;12.384;2024-02-26T09:59:42;8.40;99.90
9293;DHT22;69930;48.232;12.384;2024-02-26T10:02:12;8.40;99.90
9293;DHT22;69930;48.232;12.384;2024-02-26T10:04:41;8.40;99.90
9293;DHT22;69930;48.232;12.384;2024-02-26T10:07:10;8.40;99.90
9293;DHT22;69930;48.232;12.384;2024-02-26T10:09:38;8.50;99.90
9293;DHT22;69930;48.232;12.384;2024-02-26T10:12:10;8.50;99.90
9293;DHT22;69930;48.232;12.384;2024-02-26T10:14:37;8.50;99.90
9293;DHT22;69930;48.232;12.384;2024-02-26T10:17:07;8.50;99.90
9293;DHT22;69930;48.232;12.384;2024-02-26T10:19:35;8.50;99.90
9293;DHT22;69930;48.232;12.384;2024-02-26T10:22:03;8.50;99.90
9293;DHT22;69930;48.232;12.384;2024-02-26T10:24:31;8.40;99.90
9293;DHT22;69930;48.232;12.384;2024-02-26T10:27:00;8.40;99.90
9293;DHT22;69930;48.232;12.384;2024-02-26T10:29:32;8.50;99.90
9293;DHT22;69930;48.232;12.384;2024-02-26T10:32:00;8.60;99.90
9293;DHT22;69930;48.232;12.384;2024-02-26T10:34:29;8.70;99.90
9293;DHT22;69930;48.232;12.384;2024-02-26T10:36:57;8.80;99.90
9293;DHT22;69930;48.232;12.384;2024-02-26T10:39:24;8.80;99.90
9293;DHT22;69930;48.232;12.384;2024-02-26T10:41:52;8.90;99.90
9293;DHT22;69930;48.232;12.384;2024-02-26T10:44:19;8.90;99.90
9293;DHT22;69930;48.232;12.384;2024-02-26T13:12:10;12.40;99.90
9293;DHT22;69930;48.232;12.384;2024-02-26T13:14:39;12.50;99.90
9293;DHT22;69930;48.232;12.384;2024-02-26T13:17:06;12.70;99.90
9293;DHT22;69930;48.232;12.384;2024-02-26T13:19:34;12.70;99.90
9293;DHT22;69930;48.232;12.384;2024-02-26T13:22:15;12.80;99.90
9293;DHT22;69930;48.232;12.384;2024-02-26T13:24:43;12.80;99.90
9293;DHT22;69930;48.232;12.384;2024-02-26T13:27:23;12.90;99.90
9293;DHT22;69930;48.232;12.384;2024-02-26T13:30:06;13.00;99.90
9293;DHT22;69930;48.232;12.384;2024-02-26T13:32:36;13.00;99.90
9293;DHT22;69930;48.232;12.384;2024-02-26T13:35:05;13.00;99.90
9293;DHT22;69930;48.232;12.384;2024-02-26T13:37:41;13.00;99.90
9293;DHT22;69930;48.232;12.384;2024-02-26T13:40:11;13.00;99.90
9293;DHT22;69930;48.232;12.384;2024-02-26T13:42:40;13.00;99.90
9293;DHT22;69930;48.232;12.384;2024-02-26T13:45:08;13.00;99.90
9293;DHT22;69930;48.232;12.384;2024-02-26T13:47:36;13.00;99.90
9293;DHT22;69930;48.232;12.384;2024-02-26T13:50:04;13.00;99.90
9293;DHT22;69930;48.232;12.384;2024-02-26T13:52:31;13.00;99.90
9293;DHT22;69930;48.232;12.384;2024-02-26T13:55:00;13.00;99.90
9293;DHT22;69930;48.232;12.384;2024-02-26T13:57:28;13.10;99.90
9293;DHT22;69930;48.232;12.384;2024-02-26T13:59:56;13.10;99.90
9293;DHT22;69930;48.232;12.384;2024-02-26T14:02:24;13.10;99.90
9293;DHT22;69930;48.232;12.384;2024-02-26T14:04:51;13.10;99.90
9293;DHT22;69930;48.232;12.384;2024-02-26T14:07:18;13.20;99.90
9293;DHT22;69930;48.232;12.384;2024-02-26T14:09:45;13.20;99.90
9293;DHT22;69930;48.232;12.384;2024-02-26T14:12:13;13.30;99.90
9293;DHT22;69930;48.232;12.384;2024-02-26T14:14:40;13.30;99.90
9293;DHT22;69930;48.232;12.384;2024-02-26T15:39:16;13.10;99.90
9293;DHT22;69930;48.232;12.384;2024-02-26T15:41:43;13.00;99.90
9293;DHT22;69930;48.232;12.384;2024-02-26T15:44:11;12.90;99.90
9293;DHT22;69930;48.232;12.384;2024-02-26T15:46:42;12.80;99.90
9293;DHT22;69930;48.232;12.384;2024-02-26T15:49:10;12.80;99.90
9293;DHT22;69930;48.232;12.384;2024-02-26T15:51:38;12.70;99.90
9293;DHT22;69930;48.232;12.384;2024-02-26T15:54:09;12.70;99.90
9293;DHT22;69930;48.232;12.384;2024-02-26T15:56:38;12.60;99.90
9293;DHT22;69930;48.232;12.384;2024-02-26T15:59:05;12.50;99.90
9293;DHT22;69930;48.232;12.384;2024-02-26T16:01:32;12.50;99.90
9293;DHT22;69930;48.232;12.384;2024-02-26T16:04:14;12.40;99.90
9293;DHT22;69930;48.232;12.384;2024-02-26T16:06:44;12.30;99.90
9293;DHT22;69930;48.232;12.384;2024-02-26T16:09:13;12.20;99.90
9293;DHT22;69930;48.232;12.384;2024-02-26T16:11:42;12.10;99.90
9293;DHT22;69930;48.232;12.384;2024-02-26T16:14:30;12.00;99.90
9293;DHT22;69930;48.232;12.384;2024-02-26T16:17:17;12.00;99.90
9293;DHT22;69930;48.232;12.384;2024-02-26T16:19:57;11.90;99.90
9293;DHT22;69930;48.232;12.384;2024-02-26T16:22:26;11.90;99.90
9293;DHT22;69930;48.232;12.384;2024-02-26T16:24:58;11.90;99.90
9293;DHT22;69930;48.232;12.384;2024-02-26T16:27:31;11.90;99.90
9293;DHT22;69930;48.232;12.384;2024-02-26T16:30:02;11.90;99.90
9293;DHT22;69930;48.232;12.384;2024-02-26T16:32:34;11.80;99.90
9293;DHT22;69930;48.232;12.384;2024-02-26T16:35:04;11.80;99.90
9293;DHT22;69930;48.232;12.384;2024-02-26T16:37:45;11.70;99.90
9293;DHT22;69930;48.232;12.384;2024-02-26T16:40:13;11.70;99.90
9293;DHT22;69930;48.232;12.384;2024-02-26T16:46:14;11.70;99.90
9293;DHT22;69930;48.232;12.384;2024-02-26T16:48:45;11.60;99.90
9293;DHT22;69930;48.232;12.384;2024-02-26T16:51:16;11.60;99.90
9293;DHT22;69930;48.232;12.384;2024-02-26T16:53:44;11.60;99.90
9293;DHT22;69930;48.232;12.384;2024-02-26T18:22:29;10.40;99.90
9293;DHT22;69930;48.232;12.384;2024-02-26T18:25:10;10.30;99.90
9293;DHT22;69930;48.232;12.384;2024-02-26T18:27:38;10.30;99.90
9293;DHT22;69930;48.232;12.384;2024-02-26T18:30:07;10.20;99.90
9293;DHT22;69930;48.232;12.384;2024-02-26T18:32:35;10.20;99.90
9293;DHT22;69930;48.232;12.384;2024-02-26T18:35:16;10.20;99.90
9293;DHT22;69930;48.232;12.384;2024-02-26T18:37:45;10.20;99.90
9293;DHT22;69930;48.232;12.384;2024-02-26T18:40:13;10.20;99.90
9293;DHT22;69930;48.232;12.384;2024-02-26T18:42:51;10.10;99.90
9293;DHT22;69930;48.232;12.384;2024-02-26T18:45:46;10.20;99.90
9293;DHT22;69930;48.232;12.384;2024-02-26T18:48:48;10.20;99.90
9293;DHT22;69930;48.232;12.384;2024-02-26T18:51:16;10.20;99.90
9293;DHT22;69930;48.232;12.384;2024-02-26T18:53:49;10.20;99.90
9293;DHT22;69930;48.232;12.384;2024-02-26T18:56:24;10.20;99.90
9293;DHT22;69930;48.232;12.384;2024-02-26T18:58:52;10.10;99.90
9293;DHT22;69930;48.232;12.384;2024-02-26T19:01:19;10.10;99.90
9293;DHT22;69930;48.232;12.384;2024-02-26T19:03:47;10.00;99.90
9293;DHT22;69930;48.232;12.384;2024-02-26T19:06:14;10.00;99.90
9293;DHT22;69930;48.232;12.384;2024-02-26T19:08:42;9.90;99.90
9293;DHT22;69930;48.232;12.384;2024-02-26T19:11:11;9.90;99.90
9293;DHT22;69930;48.232;12.384;2024-02-26T19:13:38;9.80;99.90
9293;DHT22;69930;48.232;12.384;2024-02-26T19:16:06;9.80;99.90
9293;DHT22;69930;48.232;12.384;2024-02-26T19:18:35;9.60;99.90
9293;DHT22;69930;48.232;12.384;2024-02-26T19:21:02;9.50;99.90
9293;DHT22;69930;48.232;12.384;2024-02-26T19:23:30;9.50;99.90
9293;DHT22;69930;48.232;12.384;2024-02-26T19:25:59;9.40;99.90
9293;DHT22;69930;48.232;12.384;2024-02-26T19:28:28;9.40;99.90
9293;DHT22;69930;48.232;12.384;2024-02-26T19:30:56;9.40;99.90
9293;DHT22;69930;48.232;12.384;2024-02-26T19:33:23;9.40;99.90
9293;DHT22;69930;48.232;12.384;2024-02-26T19:35:50;9.20;99.90
9293;DHT22;69930;48.232;12.384;2024-02-26T19:38:19;9.10;99.90
9293;DHT22;69930;48.232;12.384;2024-02-26T19:40:46;9.00;99.90
9293;DHT22;69930;48.232;12.384;2024-02-26T19:43:13;8.90;99.90
9293;DHT22;69930;48.232;12.384;2024-02-26T19:45:42;8.80;99.90
9293;DHT22;69930;48.232;12.384;2024-02-26T19:48:11;8.70;99.90
9293;DHT22;69930;48.232;12.384;2024-02-26T19:50:38;8.60;99.90
9293;DHT22;69930;48.232;12.384;2024-02-26T19:53:06;8.50;99.90
9293;DHT22;69930;48.232;12.384;2024-02-26T19:55:33;8.50;99.90
9293;DHT22;69930;48.232;12.384;2024-02-26T19:58:00;8.40;99.90
9293;DHT22;69930;48.232;12.384;2024-02-26T20:00:30;8.40;99.90
9293;DHT22;69930;48.232;12.384;2024-02-26T20:02:58;8.30;99.90
9293;DHT22;69930;48.232;12.384;2024-02-26T20:05:25;8.20;99.90
9293;DHT22;69930;48.232;12.384;2024-02-26T20:07:52;8.20;99.90
9293;DHT22;69930;48.232;12.384;2024-02-26T20:10:20;8.10;99.90
9293;DHT22;69930;48.232;12.384;2024-02-26T20:12:49;8.10;99.90
9293;DHT22;69930;48.232;12.384;2024-02-26T20:15:17;8.00;99.90
9293;DHT22;69930;48.232;12.384;2024-02-26T20:17:47;7.90;99.90
9293;DHT22;69930;48.232;12.384;2024-02-26T20:20:15;7.90;99.90
9293;DHT22;69930;48.232;12.384;2024-02-26T20:22:43;7.80;99.90
9293;DHT22;69930;48.232;12.384;2024-02-26T20:25:09;7.70;99.90
9293;DHT22;69930;48.232;12.384;2024-02-26T20:27:37;7.70;99.90
9293;DHT22;69930;48.232;12.384;2024-02-26T20:30:05;7.60;99.90
9293;DHT22;69930;48.232;12.384;2024-02-26T20:32:33;7.60;99.90
9293;DHT22;69930;48.232;12.384;2024-02-26T20:35:00;7.50;99.90
9293;DHT22;69930;48.232;12.384;2024-02-26T20:37:29;7.60;99.90
9293;DHT22;69930;48.232;12.384;2024-02-26T20:42:38;7.50;99.90
9293;DHT22;69930;48.232;12.384;2024-02-26T20:45:22;7.60;99.90
9293;DHT22;69930;48.232;12.384;2024-02-26T20:48:03;7.40;99.90
9293;DHT22;69930;48.232;12.384;2024-02-26T21:57:02;6.00;99.90
9293;DHT22;69930;48.232;12.384;2024-02-26T21:59:29;5.90;99.90
9293;DHT22;69930;48.232;12.384;2024-02-26T22:01:56;5.90;99.90
9293;DHT22;69930;48.232;12.384;2024-02-26T22:04:23;5.80;99.90
9293;DHT22;69930;48.232;12.384;2024-02-26T22:06:51;5.80;99.90
9293;DHT22;69930;48.232;12.384;2024-02-26T22:09:19;5.80;99.90
9293;DHT22;69930;48.232;12.384;2024-02-26T22:11:48;5.70;99.90
9293;DHT22;69930;48.232;12.384;2024-02-26T22:14:16;5.60;99.90
9293;DHT22;69930;48.232;12.384;2024-02-26T22:16:43;5.60;99.90
9293;DHT22;69930;48.232;12.384;2024-02-26T22:19:11;5.50;99.90
9293;DHT22;69930;48.232;12.384;2024-02-26T22:21:41;5.50;99.90
9293;DHT22;69930;48.232;12.384;2024-02-26T22:24:08;5.50;99.90
9293;DHT22;69930;48.232;12.384;2024-02-26T22:26:35;5.50;99.90
9293;DHT22;69930;48.232;12.384;2024-02-26T22:29:02;5.50;99.90
9293;DHT22;69930;48.232;12.384;2024-02-26T22:31:31;5.50;99.90
9293;DHT22;69930;48.232;12.384;2024-02-26T22:33:58;5.50;99.90
9293;DHT22;69930;48.232;12.384;2024-02-26T22:36:25;5.50;99.90
9293;DHT22;69930;48.232;12.384;2024-02-26T22:38:53;5.50;99.90
9293;DHT22;69930;48.232;12.384;2024-02-26T22:41:21;5.60;99.90
9293;DHT22;69930;48.232;12.384;2024-02-26T22:43:49;5.50;99.90
9293;DHT22;69930;48.232;12.384;2024-02-26T22:46:16;5.50;99.90
9293;DHT22;69930;48.232;12.384;2024-02-26T22:48:45;5.50;99.90
9293;DHT22;69930;48.232;12.384;2024-02-26T22:51:12;5.50;99.90
9293;DHT22;69930;48.232;12.384;2024-02-26T22:53:39;5.40;99.90
9293;DHT22;69930;48.232;12.384;2024-02-26T22:56:06;5.40;99.90
9293;DHT22;69930;48.232;12.384;2024-02-26T22:58:33;5.40;99.90
9293;DHT22;69930;48.232;12.384;2024-02-26T23:31:52;4.80;99.90
